Time;durP1;ratioP1;P1;durP2;ratioP2;P2;SDS_P1;SDS_P2;PMS_P1;PMS_P2;Temp;Humidity;BMP_temperature;BMP_pressure;BME280_temperature;BME280_humidity;BME280_pressure;Samples;Min_cycle;Max_cycle;Signal;HPM_P1;HPM_P2
2022/07/20 00:01:09;;;;;;;5.22;2.80;;;29.60;50.70;;;;;;4978649;28;20392;-88
2022/07/20 00:03:35;;;;;;;7.10;3.47;;;29.50;50.60;;;;;;4994022;28;20177;-87
2022/07/20 00:06:01;;;;;;;7.55;3.15;;;29.40;50.80;;;;;;5013876;28;20030;-87
2022/07/20 00:11:23;;;;;;;7.43;3.13;;;29.30;50.90;;;;;;4984428;28;20138;-87
2022/07/20 00:13:55;;;;;;;9.80;3.30;;;29.30;51.20;;;;;;4978682;28;20085;-87
2022/07/20 00:16:22;;;;;;;7.40;3.58;;;29.30;51.40;;;;;;4994196;28;20027;-87
2022/07/20 00:18:48;;;;;;;7.35;3.08;;;29.20;51.60;;;;;;5009395;28;20117;-87
2022/07/20 00:21:14;;;;;;;6.53;3.03;;;29.20;51.90;;;;;;4998099;28;20390;-87
2022/07/20 00:23:40;;;;;;;9.57;3.33;;;29.10;51.80;;;;;;4975397;28;20449;-86
2022/07/20 00:26:06;;;;;;;6.70;3.65;;;29.00;51.80;;;;;;4997799;28;20026;-88
2022/07/20 00:28:32;;;;;;;8.20;3.20;;;29.00;51.80;;;;;;5001553;28;20034;-92
2022/07/20 00:30:58;;;;;;;7.85;3.60;;;28.90;51.90;;;;;;5035249;28;20006;-88
2022/07/20 00:33:23;;;;;;;6.60;3.80;;;28.90;51.90;;;;;;5015084;28;20015;-86
2022/07/20 00:35:49;;;;;;;9.48;3.58;;;28.80;52.00;;;;;;5032098;28;20094;-88
2022/07/20 00:38:15;;;;;;;7.97;3.53;;;28.80;52.20;;;;;;5029380;28;20066;-89
2022/07/20 00:40:41;;;;;;;7.28;3.20;;;28.70;52.40;;;;;;5002333;28;20126;-91
2022/07/20 00:43:07;;;;;;;7.78;3.03;;;28.70;52.40;;;;;;5001862;28;20046;-92
2022/07/20 00:45:32;;;;;;;6.72;3.17;;;28.70;52.50;;;;;;5016690;28;20010;-90
2022/07/20 00:47:58;;;;;;;8.57;3.63;;;28.60;52.40;;;;;;5007448;28;20030;-87
2022/07/20 00:50:24;;;;;;;7.63;3.30;;;28.50;52.30;;;;;;4998042;28;20517;-87
2022/07/20 00:52:50;;;;;;;5.47;3.40;;;28.50;52.40;;;;;;5011386;28;20041;-87
2022/07/20 00:55:16;;;;;;;6.68;3.38;;;28.50;52.60;;;;;;5013984;28;20033;-88
2022/07/20 00:57:42;;;;;;;5.97;3.05;;;28.40;52.70;;;;;;4999751;28;20028;-88
2022/07/20 01:00:09;;;;;;;5.55;3.22;;;28.40;52.70;;;;;;5013894;28;20117;-88
2022/07/20 01:02:35;;;;;;;8.93;3.40;;;28.40;52.90;;;;;;4990115;28;20026;-88
2022/07/20 01:05:01;;;;;;;6.28;3.22;;;28.30;52.90;;;;;;4977231;28;20035;-88
2022/07/20 01:07:26;;;;;;;6.30;3.50;;;28.30;52.90;;;;;;4977473;28;20085;-87
2022/07/20 01:09:52;;;;;;;10.57;3.67;;;28.20;53.20;;;;;;4977365;28;20439;-87
2022/07/20 01:12:18;;;;;;;6.38;3.17;;;28.20;53.20;;;;;;4984629;28;20099;-88
2022/07/20 01:14:44;;;;;;;9.57;3.70;;;28.20;53.40;;;;;;4993459;28;20033;-88
2022/07/20 01:17:10;;;;;;;5.50;3.28;;;28.20;53.60;;;;;;4979042;28;20035;-88
2022/07/20 01:19:35;;;;;;;7.13;3.42;;;28.10;53.60;;;;;;4997098;28;20479;-87
2022/07/20 01:22:01;;;;;;;6.10;3.00;;;28.10;53.90;;;;;;4977697;28;20069;-88
2022/07/20 01:24:26;;;;;;;7.35;3.38;;;28.00;53.90;;;;;;4983185;28;20141;-87
2022/07/20 01:26:52;;;;;;;7.88;3.78;;;27.90;53.90;;;;;;4995079;28;20037;-87
2022/07/20 01:29:18;;;;;;;5.90;3.13;;;27.90;54.00;;;;;;5012871;28;20529;-87
2022/07/20 01:31:44;;;;;;;5.57;3.10;;;27.90;54.30;;;;;;5012721;28;20038;-88
2022/07/20 01:34:09;;;;;;;4.72;3.17;;;27.90;54.20;;;;;;5027573;28;20375;-88
2022/07/20 01:36:35;;;;;;;7.65;3.22;;;27.80;54.30;;;;;;5012744;28;20387;-88
2022/07/20 01:39:02;;;;;;;7.10;3.80;;;27.80;54.00;;;;;;5014564;28;20035;-86
2022/07/20 01:41:27;;;;;;;5.70;3.40;;;27.70;54.00;;;;;;5032440;28;20038;-87
2022/07/20 01:43:53;;;;;;;6.40;3.80;;;27.70;54.20;;;;;;5000713;28;20038;-88
2022/07/20 01:46:18;;;;;;;6.55;3.30;;;27.70;54.40;;;;;;5012545;28;20117;-86
2022/07/20 01:48:44;;;;;;;7.60;3.13;;;27.60;54.40;;;;;;5018060;28;20030;-89
2022/07/20 01:51:10;;;;;;;6.78;3.65;;;27.60;54.60;;;;;;5010898;28;20030;-87
2022/07/20 01:53:36;;;;;;;7.00;3.28;;;27.50;54.80;;;;;;5033970;28;20467;-88
2022/07/20 01:56:02;;;;;;;8.77;3.42;;;27.50;55.80;;;;;;5013057;28;20030;-88
2022/07/20 01:58:27;;;;;;;6.10;3.42;;;27.50;55.50;;;;;;5005383;28;20030;-88
2022/07/20 02:00:53;;;;;;;6.50;3.50;;;27.40;55.40;;;;;;4992593;28;20049;-88
2022/07/20 02:03:19;;;;;;;11.18;3.35;;;27.40;55.20;;;;;;4973844;28;20049;-88
2022/07/20 02:05:45;;;;;;;6.72;3.65;;;27.40;55.30;;;;;;4996342;28;20030;-88
2022/07/20 02:08:10;;;;;;;7.05;3.30;;;27.30;55.40;;;;;;5025969;28;20201;-88
2022/07/20 02:10:37;;;;;;;5.72;3.63;;;27.20;55.70;;;;;;5009407;28;20392;-88
2022/07/20 02:13:02;;;;;;;6.95;3.20;;;27.20;56.00;;;;;;5009212;28;20498;-88
2022/07/20 02:18:13;;;;;;;5.40;3.47;;;27.20;56.40;;;;;;5013435;28;20049;-90
2022/07/20 02:20:40;;;;;;;8.40;3.50;;;27.20;57.00;;;;;;5013917;28;20022;-88
2022/07/20 02:23:08;;;;;;;7.55;3.40;;;27.10;56.70;;;;;;5008630;28;20026;-88
2022/07/20 02:25:36;;;;;;;10.52;3.65;;;27.10;56.70;;;;;;5017463;28;20135;-89
2022/07/20 02:28:03;;;;;;;8.00;3.75;;;27.00;56.90;;;;;;5011779;28;20165;-88
2022/07/20 02:30:28;;;;;;;8.32;3.92;;;27.00;56.80;;;;;;4977522;28;20033;-88
2022/07/20 02:32:54;;;;;;;10.77;4.30;;;27.00;56.80;;;;;;5023948;28;20030;-87
2022/07/20 02:35:19;;;;;;;6.88;3.50;;;26.90;56.70;;;;;;5029011;28;20028;-88
2022/07/20 02:37:45;;;;;;;7.47;3.30;;;26.90;56.50;;;;;;5001277;28;20060;-87
2022/07/20 02:40:11;;;;;;;6.35;3.28;;;26.90;56.60;;;;;;5013310;28;20511;-88
2022/07/20 02:42:37;;;;;;;6.28;3.72;;;26.80;56.50;;;;;;4995916;28;20116;-88
2022/07/20 02:45:03;;;;;;;7.47;3.90;;;26.80;56.90;;;;;;4995664;28;20062;-88
2022/07/20 02:47:29;;;;;;;7.85;3.40;;;26.70;56.90;;;;;;4996041;28;20479;-89
2022/07/20 02:49:54;;;;;;;8.77;3.40;;;26.70;57.20;;;;;;4979124;28;20061;-88
2022/07/20 02:52:20;;;;;;;7.72;3.33;;;26.60;57.70;;;;;;4979479;28;20034;-88
2022/07/20 02:54:45;;;;;;;8.18;3.88;;;26.60;57.60;;;;;;4979730;28;20080;-89
2022/07/20 02:57:11;;;;;;;7.70;3.28;;;26.60;57.70;;;;;;4999493;28;20443;-88
2022/07/20 02:59:37;;;;;;;6.35;3.33;;;26.50;57.50;;;;;;4987283;28;20038;-88
2022/07/20 03:02:02;;;;;;;7.15;3.25;;;26.50;57.60;;;;;;5016103;28;20033;-88
2022/07/20 03:04:28;;;;;;;6.80;3.70;;;26.40;57.60;;;;;;4980263;28;20443;-88
2022/07/20 03:06:53;;;;;;;7.53;3.75;;;26.40;57.70;;;;;;5002047;28;20052;-88
2022/07/20 03:09:19;;;;;;;5.97;3.20;;;26.40;58.20;;;;;;5015653;28;20033;-89
2022/07/20 03:11:45;;;;;;;6.97;3.90;;;26.30;58.50;;;;;;4983188;28;20133;-88
2022/07/20 03:14:10;;;;;;;7.00;3.58;;;26.30;58.70;;;;;;4998936;28;20037;-88
2022/07/20 03:16:36;;;;;;;7.68;3.78;;;26.20;58.90;;;;;;4999707;28;20041;-89
2022/07/20 03:19:01;;;;;;;8.93;3.97;;;26.20;58.90;;;;;;4999335;28;20033;-89
2022/07/20 03:21:27;;;;;;;6.53;3.55;;;26.20;59.00;;;;;;5017092;28;20594;-88
2022/07/20 03:23:53;;;;;;;6.10;3.60;;;26.10;58.80;;;;;;4990871;28;20049;-89
2022/07/20 03:26:21;;;;;;;9.35;3.83;;;26.10;59.00;;;;;;5016704;28;20100;-88
2022/07/20 03:28:47;;;;;;;7.82;3.30;;;26.00;58.90;;;;;;5015500;28;20034;-88
2022/07/20 03:31:12;;;;;;;6.18;3.80;;;26.00;59.10;;;;;;5015042;28;20384;-88
2022/07/20 03:33:38;;;;;;;10.13;3.83;;;26.00;59.10;;;;;;4999253;28;20033;-89
2022/07/20 03:36:04;;;;;;;6.82;3.33;;;25.90;59.10;;;;;;5015378;28;20088;-89
2022/07/20 03:38:29;;;;;;;11.15;3.85;;;25.90;59.10;;;;;;5016388;28;20073;-89
2022/07/20 03:40:55;;;;;;;7.05;3.38;;;25.80;59.30;;;;;;5015129;28;20036;-88
2022/07/20 03:43:25;;;;;;;6.95;3.42;;;25.80;59.40;;;;;;4998491;28;20122;-89
2022/07/20 03:45:51;;;;;;;5.93;3.45;;;25.80;59.50;;;;;;4999360;28;20041;-88
2022/07/20 03:48:17;;;;;;;7.70;3.85;;;25.70;59.90;;;;;;4998844;28;20084;-88
2022/07/20 03:50:42;;;;;;;7.53;4.07;;;25.70;60.30;;;;;;5015579;28;20034;-88
2022/07/20 03:53:08;;;;;;;6.88;4.10;;;25.70;60.90;;;;;;5015038;28;20399;-89
2022/07/20 03:55:34;;;;;;;7.60;4.00;;;25.60;61.10;;;;;;4982959;28;20151;-88
2022/07/20 03:57:59;;;;;;;7.10;3.58;;;25.60;61.30;;;;;;5015326;28;20033;-89
2022/07/20 04:00:25;;;;;;;7.38;3.97;;;25.60;61.60;;;;;;5016317;28;20034;-89
2022/07/20 04:02:51;;;;;;;13.35;4.72;;;25.60;60.20;;;;;;5011923;28;20040;-88
2022/07/20 04:05:17;;;;;;;11.63;4.47;;;25.50;60.10;;;;;;5018374;28;20071;-88
2022/07/20 04:07:43;;;;;;;8.32;4.35;;;25.50;60.20;;;;;;5034805;28;20034;-88
2022/07/20 04:10:08;;;;;;;9.18;4.47;;;25.40;59.80;;;;;;5015209;28;20456;-88
2022/07/20 04:12:34;;;;;;;8.27;3.80;;;25.50;59.70;;;;;;4982551;28;20037;-88
2022/07/20 04:15:00;;;;;;;10.55;4.65;;;25.40;59.50;;;;;;5030681;28;20018;-90
2022/07/20 04:17:25;;;;;;;9.45;4.07;;;25.40;59.40;;;;;;5006513;28;20014;-90
2022/07/20 04:19:51;;;;;;;8.05;4.30;;;25.40;59.50;;;;;;5038622;28;20022;-88
2022/07/20 04:22:17;;;;;;;8.85;4.97;;;25.40;59.70;;;;;;5003325;28;20061;-91
2022/07/20 04:24:43;;;;;;;14.63;5.75;;;25.40;60.00;;;;;;5030811;28;20070;-90
2022/07/20 04:27:08;;;;;;;12.50;6.00;;;25.40;60.00;;;;;;5018321;28;20010;-95
2022/07/20 04:29:34;;;;;;;14.77;7.60;;;25.40;60.00;;;;;;4999510;28;20026;-89
2022/07/20 04:32:00;;;;;;;12.27;6.93;;;25.30;60.40;;;;;;5005846;28;20030;-89
2022/07/20 04:34:27;;;;;;;14.65;8.52;;;25.30;61.20;;;;;;4994722;28;20090;-89
2022/07/20 04:36:53;;;;;;;16.15;9.40;;;25.30;61.60;;;;;;4994444;28;20022;-89
2022/07/20 04:39:19;;;;;;;16.27;9.25;;;25.30;62.10;;;;;;4994311;28;20534;-90
2022/07/20 04:41:44;;;;;;;16.45;11.15;;;25.30;63.00;;;;;;4994804;28;20027;-91
2022/07/20 04:44:10;;;;;;;24.27;11.55;;;25.30;64.00;;;;;;4991733;28;20472;-78
2022/07/20 04:46:35;;;;;;;25.20;14.00;;;25.30;64.90;;;;;;4990788;28;20381;-78
2022/07/20 04:49:01;;;;;;;24.10;13.95;;;25.30;65.80;;;;;;4976244;28;20030;-78
2022/07/20 04:51:27;;;;;;;24.30;13.32;;;25.30;66.40;;;;;;4991379;28;20177;-78
2022/07/20 04:53:52;;;;;;;24.90;14.40;;;25.30;67.00;;;;;;4972644;28;20092;-78
2022/07/20 04:56:18;;;;;;;21.02;14.40;;;25.40;67.50;;;;;;4988729;28;20081;-78
2022/07/20 04:58:47;;;;;;;23.77;13.57;;;25.30;67.90;;;;;;4994128;28;20029;-78
2022/07/20 05:01:14;;;;;;;21.40;15.07;;;25.40;68.30;;;;;;4989776;28;20503;-90
2022/07/20 05:03:39;;;;;;;22.02;14.10;;;25.40;68.50;;;;;;5001127;28;20035;-91
2022/07/20 05:06:05;;;;;;;25.38;16.90;;;25.40;68.90;;;;;;4991157;28;20037;-91
2022/07/20 05:08:31;;;;;;;26.25;17.38;;;25.40;69.60;;;;;;5005280;28;20389;-90
2022/07/20 05:10:56;;;;;;;25.58;18.02;;;25.40;69.90;;;;;;4994510;28;20060;-91
2022/07/20 05:13:22;;;;;;;27.95;18.88;;;25.40;70.80;;;;;;4986603;28;20030;-91
2022/07/20 05:16:08;;;;;;;29.10;18.92;;;25.40;70.50;;;;;;4990202;28;20455;-91
2022/07/20 05:18:33;;;;;;;27.77;19.40;;;25.40;70.70;;;;;;4991603;28;20039;-90
2022/07/20 05:20:59;;;;;;;30.60;20.75;;;25.40;71.10;;;;;;4995724;28;20014;-90
2022/07/20 05:23:25;;;;;;;29.85;20.50;;;25.40;71.60;;;;;;4993337;28;20486;-90
2022/07/20 05:25:51;;;;;;;29.42;21.33;;;25.40;72.00;;;;;;5000307;28;20030;-91
2022/07/20 05:28:18;;;;;;;28.13;22.15;;;25.40;72.30;;;;;;5000890;28;20029;-91
2022/07/20 05:30:45;;;;;;;28.75;22.60;;;25.40;72.60;;;;;;5013266;28;20061;-92
2022/07/20 05:33:11;;;;;;;29.83;21.90;;;25.40;73.10;;;;;;4994828;28;20456;-91
2022/07/20 05:35:37;;;;;;;34.78;23.17;;;25.40;73.40;;;;;;5005747;28;20080;-91
2022/07/20 05:38:03;;;;;;;29.92;23.15;;;25.40;73.80;;;;;;4986310;28;20464;-91
2022/07/20 05:40:28;;;;;;;32.13;23.50;;;25.40;74.30;;;;;;5006372;28;20464;-91
2022/07/20 05:42:54;;;;;;;35.35;23.08;;;25.40;74.50;;;;;;5011680;28;20026;-91
2022/07/20 05:45:20;;;;;;;31.70;23.15;;;25.40;74.90;;;;;;4993342;28;20388;-91
2022/07/20 05:47:46;;;;;;;30.85;24.17;;;25.40;75.20;;;;;;5015354;28;20022;-90
2022/07/20 05:50:12;;;;;;;36.08;23.90;;;25.50;75.50;;;;;;5002152;28;20088;-91
2022/07/20 05:52:38;;;;;;;33.75;24.95;;;25.50;75.90;;;;;;5003654;28;20034;-90
2022/07/20 05:55:04;;;;;;;31.13;24.58;;;25.50;76.00;;;;;;5004182;28;20034;-90
2022/07/20 05:57:29;;;;;;;32.35;24.17;;;25.50;76.30;;;;;;4990238;28;20021;-91
2022/07/20 05:59:55;;;;;;;31.58;23.98;;;25.50;76.60;;;;;;5006764;28;20027;-91
2022/07/20 06:02:24;;;;;;;32.97;23.92;;;25.50;76.90;;;;;;5006098;28;20030;-91
2022/07/20 06:04:50;;;;;;;34.85;24.42;;;25.50;77.20;;;;;;5013823;28;20061;-91
2022/07/20 06:07:16;;;;;;;30.55;25.15;;;25.50;77.60;;;;;;4968745;28;20065;-92
2022/07/20 06:09:41;;;;;;;36.47;24.75;;;25.60;78.00;;;;;;5004616;28;20025;-92
2022/07/20 06:12:08;;;;;;;34.33;24.92;;;25.60;78.30;;;;;;5030080;28;20476;-91
2022/07/20 06:14:33;;;;;;;27.42;22.35;;;25.60;78.50;;;;;;5009585;28;20022;-91
2022/07/20 06:16:59;;;;;;;31.60;24.35;;;25.60;78.80;;;;;;5030298;28;20033;-91
2022/07/20 06:19:25;;;;;;;36.00;25.08;;;25.60;79.10;;;;;;5028825;28;20041;-91
2022/07/20 06:21:50;;;;;;;34.97;25.23;;;25.70;79.60;;;;;;4995609;28;20029;-91
2022/07/20 06:24:19;;;;;;;34.15;26.02;;;25.70;79.80;;;;;;4986737;28;20050;-93
2022/07/20 06:26:46;;;;;;;32.70;24.73;;;25.70;80.10;;;;;;4993631;28;20030;-90
2022/07/20 06:29:11;;;;;;;32.05;24.38;;;25.70;80.40;;;;;;4993167;28;20502;-90
2022/07/20 06:31:37;;;;;;;33.97;24.30;;;25.70;80.40;;;;;;5011347;28;20034;-89
2022/07/20 06:34:04;;;;;;;31.13;24.05;;;25.80;80.80;;;;;;5013014;28;20031;-90
2022/07/20 06:36:30;;;;;;;30.45;23.30;;;25.80;81.00;;;;;;5012431;28;20383;-91
2022/07/20 06:38:55;;;;;;;32.55;24.90;;;25.80;81.10;;;;;;5003290;28;20023;-91
2022/07/20 06:41:21;;;;;;;32.85;23.67;;;25.80;81.20;;;;;;4985991;28;20022;-89
2022/07/20 06:43:47;;;;;;;31.45;22.58;;;25.90;81.30;;;;;;5012484;28;20042;-90
2022/07/20 06:46:12;;;;;;;31.90;23.35;;;25.80;81.10;;;;;;5012793;28;20064;-90
2022/07/20 06:48:40;;;;;;;27.80;20.45;;;25.90;81.10;;;;;;5009747;28;20118;-86
2022/07/20 06:51:06;;;;;;;27.95;19.95;;;25.90;81.00;;;;;;5011341;28;20113;-87
2022/07/20 06:53:31;;;;;;;24.55;19.65;;;25.90;80.70;;;;;;4980477;28;20177;-88
2022/07/20 06:55:57;;;;;;;27.73;18.67;;;26.00;80.50;;;;;;5012910;28;20034;-88
2022/07/20 06:58:23;;;;;;;27.10;18.77;;;26.00;80.30;;;;;;5013010;28;20035;-87
2022/07/20 07:00:49;;;;;;;23.80;17.83;;;26.00;79.80;;;;;;5012841;28;20030;-90
2022/07/20 07:03:14;;;;;;;22.35;16.63;;;26.00;79.90;;;;;;4997752;28;20033;-89
2022/07/20 07:05:40;;;;;;;22.98;16.60;;;26.10;80.00;;;;;;5012957;28;20113;-89
2022/07/20 07:08:06;;;;;;;26.95;16.67;;;26.10;79.80;;;;;;4996605;28;20503;-88
2022/07/20 07:10:31;;;;;;;24.98;16.52;;;26.20;79.60;;;;;;5012566;28;20033;-88
2022/07/20 07:12:57;;;;;;;23.60;15.98;;;26.20;79.20;;;;;;5012006;28;20062;-89
2022/07/20 07:15:23;;;;;;;23.20;15.50;;;26.20;79.00;;;;;;4997236;28;20022;-88
2022/07/20 07:17:53;;;;;;;20.30;14.07;;;26.30;78.60;;;;;;4996166;28;20030;-88
2022/07/20 07:20:19;;;;;;;22.70;14.10;;;26.30;77.90;;;;;;5012581;28;20038;-90
2022/07/20 07:22:45;;;;;;;26.23;14.40;;;26.40;77.70;;;;;;4996096;28;20426;-88
2022/07/20 07:25:10;;;;;;;23.50;14.18;;;26.40;77.50;;;;;;5012422;28;20046;-88
2022/07/20 07:27:36;;;;;;;20.60;13.43;;;26.40;77.20;;;;;;4995706;28;20025;-89
2022/07/20 07:30:02;;;;;;;24.58;14.25;;;26.40;77.30;;;;;;4994788;28;20037;-88
2022/07/20 07:32:28;;;;;;;21.80;13.30;;;26.50;77.40;;;;;;4991273;28;20033;-88
2022/07/20 07:34:53;;;;;;;17.83;12.55;;;26.50;77.20;;;;;;5012011;28;20388;-90
2022/07/20 07:37:19;;;;;;;22.92;13.25;;;26.60;77.20;;;;;;4981927;28;20030;-88
2022/07/20 07:39:45;;;;;;;21.95;13.02;;;26.60;76.70;;;;;;4984773;28;20038;-89
2022/07/20 07:42:10;;;;;;;20.80;13.18;;;26.70;76.70;;;;;;4989957;28;20058;-90
2022/07/20 07:44:36;;;;;;;20.38;11.80;;;26.70;76.30;;;;;;4989268;28;20047;-89
2022/07/20 07:47:02;;;;;;;21.80;12.60;;;26.70;76.40;;;;;;4992426;28;20030;-89
2022/07/20 07:49:33;;;;;;;19.77;11.07;;;26.70;76.30;;;;;;5009078;28;20498;-88
2022/07/20 07:51:59;;;;;;;21.90;11.90;;;26.80;76.30;;;;;;4997597;28;20085;-89
2022/07/20 07:54:25;;;;;;;16.25;10.60;;;26.90;76.40;;;;;;4980822;28;20384;-90
2022/07/20 07:56:50;;;;;;;18.42;11.70;;;27.00;76.80;;;;;;4997911;28;20460;-89
2022/07/20 07:59:16;;;;;;;17.70;11.13;;;27.00;76.80;;;;;;4999306;28;20027;-89
2022/07/20 08:01:42;;;;;;;17.20;10.27;;;27.00;76.50;;;;;;5013423;28;20065;-93
2022/07/20 08:04:07;;;;;;;18.73;11.07;;;27.10;76.40;;;;;;5013004;28;20050;-90
2022/07/20 08:06:33;;;;;;;25.73;12.35;;;27.20;75.10;;;;;;5025203;28;20011;-90
2022/07/20 08:08:59;;;;;;;17.75;10.60;;;27.20;74.20;;;;;;5009800;28;20070;-90
2022/07/20 08:11:25;;;;;;;16.65;10.43;;;27.30;74.10;;;;;;5021511;28;20067;-93
2022/07/20 08:13:50;;;;;;;17.25;10.77;;;27.30;74.20;;;;;;5014294;28;20027;-89
2022/07/20 08:16:16;;;;;;;18.45;10.80;;;27.30;74.20;;;;;;5011786;28;20026;-89
2022/07/20 08:18:42;;;;;;;17.98;9.93;;;27.40;74.20;;;;;;4994833;28;20029;-93
2022/07/20 08:21:07;;;;;;;16.50;10.05;;;27.50;74.00;;;;;;4992351;28;20122;-92
2022/07/20 08:23:33;;;;;;;14.10;9.23;;;27.60;74.10;;;;;;4975379;28;20125;-91
2022/07/20 08:25:58;;;;;;;16.15;9.80;;;27.60;74.10;;;;;;4971635;28;20465;-91
2022/07/20 08:28:24;;;;;;;16.80;9.90;;;27.70;73.70;;;;;;5003901;28;20097;-95
2022/07/20 08:30:51;;;;;;;17.27;9.85;;;27.70;73.40;;;;;;4998009;28;20150;-91
2022/07/20 08:33:17;;;;;;;20.92;10.45;;;27.80;73.10;;;;;;5007200;28;20157;-92
2022/07/20 08:35:44;;;;;;;17.05;9.18;;;27.80;73.10;;;;;;4994899;28;20484;-92
2022/07/20 08:38:10;;;;;;;15.23;9.02;;;27.90;73.00;;;;;;4995408;28;20053;-90
2022/07/20 08:40:36;;;;;;;16.10;9.50;;;27.90;72.60;;;;;;5001752;28;20030;-88
2022/07/20 08:43:02;;;;;;;17.77;10.63;;;28.00;72.10;;;;;;4972274;28;20100;-89
2022/07/20 08:45:28;;;;;;;16.77;9.50;;;28.00;71.80;;;;;;4994306;28;20138;-90
2022/07/20 08:47:57;;;;;;;16.10;10.90;;;28.00;71.70;;;;;;4996357;28;20110;-88
2022/07/20 08:50:26;;;;;;;17.70;9.73;;;28.00;71.60;;;;;;4999448;28;20026;-88
2022/07/20 08:52:52;;;;;;;15.20;9.27;;;28.10;71.60;;;;;;4993440;28;20547;-89
2022/07/20 08:55:19;;;;;;;16.85;9.35;;;28.10;72.00;;;;;;5004202;28;20026;-90
2022/07/20 08:57:44;;;;;;;18.05;8.88;;;28.10;72.10;;;;;;5010490;28;20037;-89
2022/07/20 09:00:11;;;;;;;14.38;9.63;;;28.10;72.00;;;;;;4978954;28;20042;-89
2022/07/20 09:02:52;;;;;;;14.25;9.32;;;28.20;71.70;;;;;;4993864;28;20049;-90
2022/07/20 09:05:20;;;;;;;13.07;8.40;;;28.20;71.70;;;;;;5008567;28;20118;-89
2022/07/20 09:07:51;;;;;;;13.07;8.38;;;28.30;71.80;;;;;;5010988;28;20460;-89
2022/07/20 09:10:23;;;;;;;14.27;7.72;;;28.30;71.30;;;;;;4995258;28;20101;-89
2022/07/20 09:13:01;;;;;;;13.65;7.97;;;28.40;71.30;;;;;;4993347;28;20568;-91
2022/07/20 09:15:40;;;;;;;15.30;8.23;;;28.50;71.30;;;;;;4993219;28;20022;-88
2022/07/20 09:18:13;;;;;;;12.82;7.65;;;28.50;71.30;;;;;;4994056;28;20030;-89
2022/07/20 09:20:42;;;;;;;13.55;8.30;;;28.60;70.90;;;;;;4993476;28;20026;-88
2022/07/20 09:23:12;;;;;;;14.80;7.72;;;28.70;70.70;;;;;;4993233;28;20037;-90
2022/07/20 09:26:08;;;;;;;16.73;8.27;;;28.70;70.70;;;;;;5011081;28;20086;-88
2022/07/20 09:28:37;;;;;;;12.85;6.97;;;28.80;69.80;;;;;;4996803;28;20038;-88
2022/07/20 09:31:08;;;;;;;13.43;7.28;;;28.80;69.80;;;;;;4992875;28;20081;-88
2022/07/20 09:33:34;;;;;;;12.07;7.20;;;28.90;69.50;;;;;;4995069;28;20420;-88
2022/07/20 09:36:03;;;;;;;12.95;7.70;;;29.00;69.20;;;;;;4972826;28;20117;-90
2022/07/20 09:38:40;;;;;;;12.85;7.57;;;29.00;68.60;;;;;;4996247;28;20022;-88
2022/07/20 09:41:26;;;;;;;14.82;7.88;;;29.10;68.60;;;;;;4996754;28;20088;-88
2022/07/20 09:43:53;;;;;;;11.68;7.50;;;29.10;67.80;;;;;;4972061;28;20033;-88
2022/07/20 09:46:38;;;;;;;14.95;7.53;;;29.20;67.40;;;;;;5018214;28;20113;-89
2022/07/20 09:49:10;;;;;;;13.43;6.95;;;29.20;66.90;;;;;;5027356;28;20037;-88
2022/07/20 09:51:39;;;;;;;14.38;6.43;;;29.30;66.90;;;;;;5014171;28;20026;-88
2022/07/20 09:57:26;;;;;;;12.30;6.82;;;29.40;66.90;;;;;;5014579;28;20510;-89
2022/07/20 09:59:53;;;;;;;10.88;7.47;;;29.40;67.00;;;;;;5013382;28;20030;-89
2022/07/20 10:02:20;;;;;;;10.25;7.00;;;29.50;67.00;;;;;;5006457;28;20035;-88
2022/07/20 10:04:46;;;;;;;11.77;7.03;;;29.50;66.50;;;;;;4993914;28;20081;-89
2022/07/20 10:07:12;;;;;;;13.82;7.28;;;29.60;66.50;;;;;;4948800;28;20030;-88
2022/07/20 10:09:38;;;;;;;11.10;7.70;;;29.60;66.50;;;;;;5006678;28;20030;-88
2022/07/20 10:12:04;;;;;;;11.93;7.60;;;29.70;66.50;;;;;;4976405;28;20503;-88
2022/07/20 10:14:32;;;;;;;13.77;7.65;;;29.70;66.10;;;;;;4992804;28;20030;-89
2022/07/20 10:16:58;;;;;;;12.63;7.13;;;29.80;66.30;;;;;;4981112;28;20035;-88
2022/07/20 10:19:46;;;;;;;9.73;6.50;;;29.80;66.70;;;;;;4960050;28;20042;-88
2022/07/20 10:22:12;;;;;;;12.40;7.00;;;29.90;65.90;;;;;;4976325;28;20026;-88
2022/07/20 10:24:39;;;;;;;11.60;7.45;;;29.90;65.80;;;;;;4992248;28;20061;-88
2022/07/20 10:27:07;;;;;;;10.27;6.72;;;29.90;65.30;;;;;;5014006;28;20101;-90
2022/07/20 10:29:36;;;;;;;12.18;7.30;;;30.00;64.80;;;;;;5013524;28;20057;-88
2022/07/20 10:32:25;;;;;;;11.05;7.43;;;30.00;64.50;;;;;;5002623;28;20441;-88
2022/07/20 10:34:55;;;;;;;11.85;7.10;;;30.00;64.70;;;;;;4998537;28;20050;-88
2022/07/20 10:37:40;;;;;;;10.85;7.57;;;30.10;64.80;;;;;;5008410;28;20097;-89
2022/07/20 10:40:18;;;;;;;13.18;7.15;;;30.10;64.00;;;;;;5011056;28;20100;-90
2022/07/20 10:42:51;;;;;;;13.98;7.50;;;30.20;63.90;;;;;;5017087;28;20092;-89
2022/07/20 10:45:16;;;;;;;12.40;7.38;;;30.20;63.70;;;;;;5011166;28;20446;-90
2022/07/20 10:47:42;;;;;;;11.77;7.28;;;30.20;63.40;;;;;;5013602;28;20054;-88
2022/07/20 10:50:10;;;;;;;10.73;6.80;;;30.30;63.20;;;;;;5013506;28;20433;-89
2022/07/20 10:52:36;;;;;;;12.02;7.05;;;30.30;62.80;;;;;;5013809;28;20472;-89
2022/07/20 10:55:04;;;;;;;12.18;7.28;;;30.30;62.30;;;;;;5013754;28;20033;-90
2022/07/20 10:57:31;;;;;;;9.90;6.60;;;30.30;61.90;;;;;;5012902;28;20104;-92
2022/07/20 11:00:17;;;;;;;10.60;6.35;;;30.30;62.00;;;;;;5012245;28;20029;-90
2022/07/20 11:02:43;;;;;;;11.15;6.90;;;30.40;62.00;;;;;;5012243;28;20074;-87
2022/07/20 11:05:19;;;;;;;12.35;6.72;;;30.40;61.60;;;;;;5012126;28;20131;-89
2022/07/20 11:07:45;;;;;;;9.20;6.10;;;30.40;62.00;;;;;;5012114;28;20041;-89
2022/07/20 11:10:31;;;;;;;9.63;5.72;;;30.40;62.00;;;;;;5022000;28;20030;-92
2022/07/20 11:12:59;;;;;;;9.73;5.70;;;30.50;61.60;;;;;;4996576;28;20042;-90
2022/07/20 11:15:47;;;;;;;7.72;5.45;;;30.50;61.00;;;;;;5007509;28;20140;-88
2022/07/20 11:18:20;;;;;;;6.93;4.80;;;30.50;60.50;;;;;;5013814;28;20038;-89
2022/07/20 11:20:56;;;;;;;7.95;4.95;;;30.50;59.40;;;;;;5013613;28;20033;-90
2022/07/20 11:23:25;;;;;;;8.70;4.60;;;30.50;59.40;;;;;;5012719;28;20034;-89
2022/07/20 11:26:00;;;;;;;11.52;5.68;;;30.50;59.60;;;;;;5016335;28;20018;-89
2022/07/20 11:28:32;;;;;;;9.05;5.45;;;30.50;59.60;;;;;;5007387;28;20018;-89
2022/07/20 11:30:59;;;;;;;6.97;5.10;;;30.60;59.70;;;;;;4999044;28;20027;-89
2022/07/20 11:33:30;;;;;;;10.00;5.28;;;30.60;59.60;;;;;;4994314;28;20455;-90
2022/07/20 11:36:00;;;;;;;9.45;4.95;;;30.70;59.60;;;;;;4995139;28;20018;-89
2022/07/20 11:38:49;;;;;;;7.57;5.15;;;30.80;59.40;;;;;;5027476;28;20026;-88
2022/07/20 11:41:35;;;;;;;7.57;5.20;;;30.80;60.30;;;;;;4996729;28;20026;-89
2022/07/20 11:44:03;;;;;;;7.63;5.30;;;30.90;60.10;;;;;;5025597;28;20093;-89
2022/07/20 11:46:35;;;;;;;8.30;4.85;;;31.00;59.30;;;;;;5019396;28;20010;-89
2022/07/20 11:49:03;;;;;;;8.93;4.97;;;31.00;59.20;;;;;;5022515;28;20033;-90
2022/07/20 11:51:31;;;;;;;9.93;4.93;;;31.00;58.70;;;;;;5040023;28;20041;-90
2022/07/20 11:53:58;;;;;;;9.43;5.10;;;31.10;59.10;;;;;;5034346;28;20032;-88
2022/07/20 11:56:28;;;;;;;9.35;5.40;;;31.10;59.00;;;;;;5039601;28;20022;-89
2022/07/20 11:58:56;;;;;;;9.25;5.18;;;31.10;59.00;;;;;;5037742;28;20117;-89
2022/07/20 12:01:26;;;;;;;8.68;5.32;;;31.30;59.00;;;;;;5030967;28;20036;-83
2022/07/20 12:03:57;;;;;;;11.10;6.10;;;31.30;58.90;;;;;;5016213;28;20385;-82
2022/07/20 12:06:29;;;;;;;7.70;5.28;;;31.30;58.70;;;;;;5002926;28;20078;-96
2022/07/20 12:09:14;;;;;;;8.13;5.07;;;31.40;58.80;;;;;;5014475;28;20423;-95
2022/07/20 12:12:04;;;;;;;9.48;5.60;;;31.40;58.10;;;;;;5020290;28;20021;-91
2022/07/20 12:14:34;;;;;;;9.23;5.82;;;31.40;57.40;;;;;;5016357;28;20018;-92
2022/07/20 12:17:11;;;;;;;9.48;6.00;;;31.40;57.10;;;;;;5013691;28;20034;-91
2022/07/20 12:19:39;;;;;;;11.48;5.18;;;31.50;57.80;;;;;;5016679;28;20023;-96
2022/07/20 12:22:04;;;;;;;7.32;5.38;;;31.50;57.50;;;;;;5014618;28;20052;-95
2022/07/20 12:24:48;;;;;;;6.85;4.90;;;31.50;57.70;;;;;;5017136;28;20137;-94
2022/07/20 12:27:14;;;;;;;7.22;5.18;;;31.50;57.70;;;;;;4989396;28;20172;-94
2022/07/20 12:29:39;;;;;;;9.38;5.07;;;31.60;57.70;;;;;;5000220;28;20112;-95
2022/07/20 12:32:07;;;;;;;8.63;4.95;;;31.70;57.50;;;;;;4998830;28;20392;-93
2022/07/20 12:34:53;;;;;;;9.25;4.75;;;31.70;56.40;;;;;;5000623;28;20026;-92
2022/07/20 12:37:20;;;;;;;8.88;5.00;;;31.80;56.10;;;;;;4982854;28;20064;-93
2022/07/20 12:39:53;;;;;;;7.22;4.40;;;31.80;56.30;;;;;;5010623;28;20018;-93
2022/07/20 12:42:28;;;;;;;8.05;4.65;;;31.80;56.20;;;;;;4997844;28;20419;-89
2022/07/20 12:45:04;;;;;;;10.65;5.10;;;31.90;56.00;;;;;;4997868;28;20030;-89
2022/07/20 12:47:31;;;;;;;7.70;4.85;;;32.00;56.20;;;;;;4998666;28;20025;-90
2022/07/20 12:49:57;;;;;;;8.10;4.97;;;32.00;56.00;;;;;;5000036;28;20030;-91